/BCO-DMO/Reef_Ecosys_OA_Impact/Porites_erosion_chem --site eq Kingman_Reef-- Level 1

      Directory  DocumentationDownload and Other Operations...

        Level 0 - At last level -       Flat list

#   Seawater chemistry from Porites erosion study
#   PI: A. Cohen, T. DeCarlo (WHOI)
#   version: 2017-04-18
# 
=========================
site                    region           
-------------------------
Kingman_Reef            Central_Pacific  
=========================
date_local  time_local  lat      lon       depth  TA      DIC     salinity  temp    NO3       OM_ar  
-------------------------
2006-03-30  07:26       6.3899   -162.3515  1.0    nd      nd      nd        nd      1.24      nd     
2006-03-30  07:26       6.3899   -162.3515  10.0   nd      nd      nd        nd      1.51      nd     
2006-03-30  07:26       6.3899   -162.3515  20.0   nd      nd      nd        nd      1.60      nd     
2006-03-30  08:09       6.4222   -162.3728  1.0    nd      nd      nd        nd      1.46      nd     
2006-03-30  08:09       6.4222   -162.3728  10.0   nd      nd      nd        nd      1.41      nd     
2006-03-30  08:09       6.4222   -162.3728  20.0   nd      nd      nd        nd      1.35      nd     
2006-03-30  10:24       6.4424   -162.4091  1.0    nd      nd      nd        nd      0.42      nd     
2006-03-30  10:24       6.4424   -162.4091  10.0   nd      nd      nd        nd      0.47      nd     
2006-03-30  10:24       6.4424   -162.4091  20.0   nd      nd      nd        nd      0.57      nd     
2006-03-30  12:51       6.4317   -162.3757  1.0    nd      nd      nd        nd      0.89      nd     
2006-03-30  12:51       6.4317   -162.3757  10.0   nd      nd      nd        nd      0.70      nd     
2006-03-30  12:51       6.4317   -162.3757  20.0   nd      nd      nd        nd      0.56      nd     
2006-03-31  07:56       6.4065   -162.3445  1.0    nd      nd      nd        nd      0.34      nd     
2006-03-31  07:56       6.4065   -162.3445  10.0   nd      nd      nd        nd      0.45      nd     
2006-03-31  07:56       6.4065   -162.3445  20.0   nd      nd      nd        nd      0.27      nd     
2006-03-31  08:40       6.3812   -162.3498  1.0    nd      nd      nd        nd      0.38      nd     
2006-03-31  08:40       6.3812   -162.3498  10.0   nd      nd      nd        nd      0.39      nd     
2006-03-31  08:40       6.3812   -162.3498  20.0   nd      nd      nd        nd      0.40      nd     
2006-03-31  09:15       6.3823   -162.3918  1.0    nd      nd      nd        nd      0.49      nd     
2006-03-31  09:15       6.3823   -162.3918  10.0   nd      nd      nd        nd      0.48      nd     
2006-03-31  09:15       6.3823   -162.3918  20.0   nd      nd      nd        nd      0.48      nd     
2006-03-31  10:00       6.3788   -162.4332  1.0    nd      nd      nd        nd      0.04      nd     
2006-03-31  10:00       6.3788   -162.4332  10.0   nd      nd      nd        nd      0.04      nd     
2006-03-31  10:00       6.3788   -162.4332  20.0   nd      nd      nd        nd      0.04      nd     
2006-03-31  10:46       6.3948   -162.4299  1.0    nd      nd      nd        nd      0.11      nd     
2006-03-31  10:46       6.3948   -162.4299  10.0   nd      nd      nd        nd      0.21      nd     
2006-03-31  10:46       6.3948   -162.4299  20.0   nd      nd      nd        nd      0.28      nd     
2006-03-31  11:48       6.3916   -162.3900  1.0    nd      nd      nd        nd      0.79      nd     
2006-03-31  11:48       6.3916   -162.3900  10.0   nd      nd      nd        nd      0.71      nd     
2006-03-31  11:48       6.3916   -162.3900  20.0   nd      nd      nd        nd      0.59      nd     
2006-04-01  08:55       6.3961   -162.4785  1.0    nd      nd      nd        nd      0.48      nd     
2006-04-01  08:55       6.3961   -162.4785  10.0   nd      nd      nd        nd      0.50      nd     
2006-04-01  08:55       6.3961   -162.4785  20.0   nd      nd      nd        nd      0.55      nd     
2006-04-01  10:18       6.4187   -162.4401  1.0    nd      nd      nd        nd      0.32      nd     
2006-04-01  10:18       6.4187   -162.4401  10.0   nd      nd      nd        nd      0.31      nd     
2006-04-01  10:18       6.4187   -162.4401  20.0   nd      nd      nd        nd      0.26      nd     
2006-04-02  09:22       6.4124   -162.4079  1.0    nd      nd      nd        nd      0.82      nd     
2006-04-02  09:22       6.4124   -162.4079  10.0   nd      nd      nd        nd      0.85      nd     
2006-04-02  09:22       6.4124   -162.4079  20.0   nd      nd      nd        nd      0.86      nd     
2006-04-02  10:27       6.4544   -162.4086  1.0    nd      nd      nd        nd      0.95      nd     
2006-04-02  10:27       6.4544   -162.4086  10.0   nd      nd      nd        nd      0.90      nd     
2006-04-02  10:27       6.4544   -162.4086  20.0   nd      nd      nd        nd      0.54      nd     
2008-04-04  12:34       6.3825   -162.3844  6.7    2283.6  1981.2  34.857    nd      nd        nd     
2008-04-04  12:34       6.3825   -162.3844  6.2    2287.0  1980.7  34.857    26.740  nd        3.48   
2008-04-04  12:34       6.3825   -162.3844  6.9    2283.7  1978.0  34.857    26.739  nd        3.48   
2008-04-04  12:34       6.3825   -162.3844  2.1    2292.1  1987.2  34.857    nd      nd        nd     
2008-04-04  14:24       6.3855   -162.3774  2.7    2195.4  1901.1  34.859    nd      nd        nd     
2008-04-04  14:24       6.3855   -162.3774  2.7    2199.1  1900.5  34.884    27.079  nd        3.36   
2008-04-04  14:24       6.3855   -162.3774  4.4    2202.7  1905.7  34.884    27.073  nd        3.34   
2008-04-04  14:24       6.3855   -162.3774  2.1    2206.8  1907.9  34.860    nd      nd        nd     
2008-04-04  15:03       6.3924   -162.3421  7.6    2270.8  1963.1  34.861    nd      nd        nd     
2008-04-04  15:03       6.3924   -162.3421  7.3    2271.2  1962.2  34.862    nd      nd        nd     
2008-04-04  15:03       6.3924   -162.3421  6.4    2270.6  1963.1  34.891    26.921  nd        3.49   
2008-04-04  15:03       6.3924   -162.3421  2.1    2280.6  1967.5  34.859    nd      nd        nd     
2008-04-05  09:35       6.3924   -162.3422  5.2    2274.2  1991.9  34.895    26.703  nd        3.23   
2008-04-05  09:35       6.3924   -162.3422  6.3    2271.4  1989.5  34.854    nd      nd        nd     
2008-04-05  09:35       6.3924   -162.3422  6.0    2264.8  1989.5  34.862    nd      nd        nd     
2008-04-05  09:35       6.3924   -162.3422  1.0    2271.8  1993.9  34.866    nd      nd        nd     
2008-04-05  11:48       6.4022   -162.3852  11.0   2254.0  1962.9  34.899    nd      nd        nd     
2008-04-05  11:48       6.4022   -162.3852  10.2   2252.1  1964.2  34.859    26.969  nd        3.28   
2008-04-05  11:48       6.4022   -162.3852  10.1   2257.6  1968.3  34.860    26.992  nd        3.30   
2008-04-05  11:48       6.4022   -162.3852  1.0    2264.0  1981.7  34.831    nd      nd        nd     
2008-04-05  12:46       6.4202   -162.3794  14.4   2275.7  1980.4  34.869    nd      nd        nd     
2008-04-05  12:46       6.4202   -162.3794  11.1   2268.2  1979.8  34.830    nd      nd        nd     
2008-04-05  12:46       6.4202   -162.3794  6.8    2254.8  1972.9  34.815    nd      nd        nd     
2008-04-05  12:46       6.4202   -162.3794  1.0    2270.3  1983.5  34.829    nd      nd        nd     
2008-04-05  13:44       6.4332   -162.3797  8.9    2270.5  1978.3  34.889    27.005  nd        3.33   
2008-04-05  13:44       6.4332   -162.3797  9.1    2268.9  1978.8  34.890    26.980  nd        3.31   
2008-04-05  13:44       6.4332   -162.3797  10.8   2271.0  1979.4  34.890    26.969  nd        3.33   
2008-04-05  13:44       6.4332   -162.3797  0.3    2287.4  1984.6  34.857    nd      nd        nd     
2008-04-06  08:41       6.3816   -162.3999  1.0    nd      nd      nd        nd      5.22      nd     
2008-04-06  08:41       6.3816   -162.3999  10.0   2283.6  1985.7  34.889    26.781  5.19      3.39   
2008-04-06  08:41       6.3816   -162.3999  20.0   nd      nd      nd        nd      5.18      nd     
2008-04-06  09:25       6.3863   -162.3339  1.0    nd      nd      nd        nd      5.23      nd     
2008-04-06  09:25       6.3863   -162.3339  10.0   2289.0  1987.1  34.892    26.699  5.18      3.44   
2008-04-06  09:25       6.3863   -162.3339  20.0   nd      nd      nd        nd      5.24      nd     
2008-04-06  10:13       6.4319   -162.3757  1.0    nd      nd      nd        nd      6.59      nd     
2008-04-06  10:13       6.4319   -162.3757  10.0   2286.1  1990.6  34.894    26.871  5.72      3.37   
2008-04-06  10:13       6.4319   -162.3757  20.0   nd      nd      nd        nd      5.53      nd     
2008-04-06  10:53       6.4545   -162.4083  1.0    nd      nd      nd        nd      5.58      nd     
2008-04-06  10:53       6.4545   -162.4083  10.0   2279.4  1983.3  34.880    26.880  5.66      3.38   
2008-04-06  10:53       6.4545   -162.4083  20.0   nd      nd      nd        nd      5.62      nd     
2008-04-06  11:32       6.4186   -162.4398  1.0    nd      nd      nd        nd      4.81      nd     
2008-04-06  11:32       6.4186   -162.4398  10.0   2285.0  1982.0  34.883    26.762  4.80      3.45   
2008-04-06  11:32       6.4186   -162.4398  20.0   nd      nd      nd        nd      4.80      nd     
2008-04-06  12:16       6.3916   -162.4802  1.0    nd      nd      nd        nd      4.56      nd     
2008-04-06  12:16       6.3916   -162.4802  10.0   2286.1  1984.6  34.884    26.769  4.60      3.43   
2008-04-06  12:16       6.3916   -162.4802  20.0   nd      nd      nd        nd      4.61      nd     
2008-04-06  15:01       6.4289   -162.3818  15.0   2267.3  1974.8  34.864    26.897  nd        3.33   
2008-04-06  15:01       6.4289   -162.3818  6.1    2259.1  1961.8  34.876    27.152  nd        3.38   
2008-04-06  15:01       6.4289   -162.3818  1.8    2258.3  1961.5  34.855    nd      nd        nd     
2008-04-06  15:28       6.4072   -162.3678  7.0    2267.6  1980.6  34.871    26.993  nd        3.28   
2008-04-06  15:28       6.4072   -162.3678  6.4    2269.3  1973.7  34.843    nd      nd        nd     
2008-04-06  15:28       6.4072   -162.3678  6.4    2273.1  1977.2  34.843    nd      nd        nd     
2008-04-06  15:28       6.4072   -162.3678  1.8    2263.6  1975.1  34.842    nd      nd        nd     
2008-04-07  09:53       6.4182   -162.4388  17.4   2278.6  1982.7  34.860    26.802  nd        3.37   
2008-04-07  09:53       6.4182   -162.4388  17.6   2285.6  1977.5  34.890    26.802  nd        3.50   
2008-04-07  09:53       6.4182   -162.4388  17.7   2280.8  1979.6  34.861    nd      nd        nd     
2008-04-07  09:53       6.4182   -162.4388  2.1    2289.3  1981.4  34.864    nd      nd        nd     
2008-04-07  11:30       6.3827   -162.3593  5.4    2254.4  1976.3  34.850    26.904  nd        3.18   
2008-04-07  11:30       6.3827   -162.3593  6.4    2258.2  1975.6  34.852    nd      nd        nd     
2008-04-07  11:30       6.3827   -162.3593  6.6    2253.8  1972.5  34.881    26.915  nd        3.21   
2008-04-07  11:30       6.3827   -162.3593  2.1    2260.8  1976.0  34.849    nd      nd        nd     
2008-04-07  13:53       6.3818   -162.3457  12.8   2286.4  1985.6  34.864    nd      nd        nd     
2008-04-07  13:53       6.3818   -162.3457  11.3   2287.0  1985.4  34.861    nd      nd        nd     
2008-04-07  13:53       6.3818   -162.3457  9.5    2288.0  1985.2  34.857    nd      nd        nd     
2008-04-07  13:53       6.3818   -162.3457  2.1    2277.0  1976.7  34.857    nd      nd        nd     
2010-04-14  12:25       6.4022   -162.3852  0.9    2265.9  1971.1  34.825    27.974  1.95      3.38   
2010-04-14  12:25       6.4022   -162.3852  10.7   2261.7  1969.4  34.805    27.985  2.11      3.35   
2010-04-15  09:25       6.3822   -162.3841  0.9    2276.4  1970.7  34.841    27.973  1.28      3.50   
2010-04-15  09:25       6.3822   -162.3841  13.7   2276.1  1971.5  34.840    27.980  1.65      3.48   
2010-04-15  12:57       6.4203   -162.3795  0.9    2271.8  1976.0  34.826    28.034  1.82      3.40   
2010-04-15  12:57       6.4203   -162.3795  13.4   2251.4  1967.0  34.816    27.971  2.30      3.26   
2010-04-15  14:53       6.3820   -162.3464  0.9    2277.2  1965.1  34.813    28.078  0.98      3.57   
2010-04-15  14:53       6.3820   -162.3464  9.8    2281.4  1963.3  34.810    28.065  1.01      3.63   
2010-04-16  08:20       6.4392   -162.3882  0.9    2281.1  1972.0  34.806    28.011  0.75      3.54   
2010-04-16  08:20       6.4392   -162.3882  11.6   2285.2  1964.6  34.806    28.013  0.65      3.66   
2010-04-16  14:04       6.3949   -162.3463  0.9    2257.7  1944.3  34.819    28.161  1.66      3.58   
2010-04-16  14:04       6.3949   -162.3463  11.0   2264.9  1966.4  34.822    27.938  1.27      3.42   
2010-04-16  14:33       6.3903   -162.3605  0.9    2267.7  1949.9  34.820    28.225  1.68      3.63   
2010-04-16  14:33       6.3903   -162.3605  9.8    2259.1  1949.2  34.841    28.140  1.75      3.53   
2010-04-17  10:50       6.3924   -162.3422  0.9    2277.6  1960.3  34.816    28.057  1.04      3.63   
2010-04-17  10:50       6.3924   -162.3422  6.7    2276.5  1957.7  34.815    28.068  1.05      3.64   
2012-05-09  10:54       6.4022   -162.3852  0.9    2274.9  1986.3  34.997    27.328  nd        3.31   
2012-05-09  10:54       6.4022   -162.3852  10.1   2268.6  1975.8  34.995    27.173  nd        3.34   
2012-05-09  13:14       6.3904   -162.3607  0.9    2277.6  1988.7  34.990    27.439  nd        3.31   
2012-05-09  13:14       6.3904   -162.3607  13.7   2275.7  1980.4  34.987    27.151  nd        3.37   
2012-05-09  14:57       6.3823   -162.3841  0.9    2295.8  1993.4  34.975    27.394  nd        3.46   
2012-05-09  14:57       6.3823   -162.3841  14.3   2293.8  1993.3  34.976    27.233  nd        3.43   
2012-05-10  09:34       6.4388   -162.3883  0.9    2303.3  1996.2  35.000    27.223  nd        3.51   
2012-05-10  09:34       6.4388   -162.3883  12.5   2300.4  1996.7  34.997    27.255  nd        3.47   
2012-05-10  12:59       6.4204   -162.3796  0.9    2278.0  1982.2  34.999    27.412  nd        3.38   
2012-05-10  12:59       6.4204   -162.3796  12.8   2269.9  1982.1  34.993    27.249  nd        3.29   
2012-05-10  15:13       6.3820   -162.3464  0.9    2306.8  1996.8  35.006    27.317  nd        3.54   
2012-05-10  15:13       6.3820   -162.3464  8.2    2300.7  1994.5  35.009    27.386  nd        3.50   
2012-05-11  09:04       6.3932   -162.3475  0.9    2276.1  1998.5  34.980    27.076  nd        3.19   
2012-05-11  09:04       6.3932   -162.3475  13.1   2274.6  1993.2  34.992    27.110  nd        3.22   
2012-05-11  13:14       6.3924   -162.3422  0.9    2288.9  1984.6  35.000    27.469  nd        3.48   
2012-05-11  13:14       6.3924   -162.3422  7.3    2284.6  1984.8  35.003    27.473  nd        3.43